createdAt,value
2022-08-31T00:01:10.769Z,13.45
2022-08-31T00:04:00.368Z,13.39
2022-08-31T00:06:45.937Z,13.34
2022-08-31T00:09:37.083Z,13.42
2022-08-31T00:12:22.486Z,13.39
2022-08-31T00:15:09.576Z,13.28
2022-08-31T00:17:56.169Z,13.21
2022-08-31T00:20:41.730Z,13.19
2022-08-31T00:23:27.366Z,13.12
2022-08-31T00:26:12.855Z,13.17
2022-08-31T00:28:58.272Z,13.13
2022-08-31T00:31:43.345Z,13.12
2022-08-31T00:34:28.628Z,13.12
2022-08-31T00:37:14.208Z,13.02
2022-08-31T00:39:59.358Z,13.07
2022-08-31T00:42:44.435Z,13.09
2022-08-31T00:45:29.987Z,12.90
2022-08-31T00:48:15.484Z,12.80
2022-08-31T00:51:01.245Z,12.72
2022-08-31T00:53:48.043Z,12.36
2022-08-31T00:56:37.223Z,12.02
2022-08-31T00:59:23.293Z,12.00
2022-08-31T01:02:09.165Z,11.96
2022-08-31T01:04:54.596Z,11.91
2022-08-31T01:07:40.610Z,11.81
2022-08-31T01:10:28.713Z,11.57
2022-08-31T01:13:15.397Z,11.64
2022-08-31T01:16:03.373Z,11.45
2022-08-31T01:18:51.553Z,11.38
2022-08-31T01:22:02.827Z,11.30
2022-08-31T01:24:49.110Z,11.28
2022-08-31T01:27:36.042Z,11.39
2022-08-31T01:30:22.838Z,11.41
2022-08-31T01:33:09.188Z,11.33
2022-08-31T01:35:55.180Z,11.19
2022-08-31T01:38:40.519Z,11.23
2022-08-31T01:41:25.712Z,11.08
2022-08-31T01:44:16.174Z,11.13
2022-08-31T01:47:01.764Z,11.07
2022-08-31T01:49:46.925Z,11.14
2022-08-31T01:52:34.079Z,11.11
2022-08-31T01:55:19.363Z,11.17
2022-08-31T01:58:05.761Z,11.06
2022-08-31T02:00:51.225Z,11.07
2022-08-31T02:03:36.696Z,11.06
2022-08-31T02:06:22.110Z,11.13
2022-08-31T02:09:08.164Z,11.05
2022-08-31T02:11:53.618Z,10.87
2022-08-31T02:14:38.911Z,10.92
2022-08-31T02:17:24.484Z,10.91
2022-08-31T02:20:11.179Z,10.73
2022-08-31T02:22:56.462Z,10.71
2022-08-31T02:25:41.732Z,10.57
2022-08-31T02:28:27.271Z,10.40
2022-08-31T02:31:12.733Z,10.45
2022-08-31T02:33:58.269Z,10.46
2022-08-31T02:36:45.168Z,10.46
2022-08-31T02:39:30.281Z,10.30
2022-08-31T02:42:15.607Z,10.23
2022-08-31T02:45:04.238Z,10.17
2022-08-31T02:47:49.453Z,10.29
2022-08-31T02:50:38.140Z,10.15
2022-08-31T02:53:24.037Z,10.14
2022-08-31T02:56:09.520Z,10.07
2022-08-31T02:58:55.419Z,10.00
2022-08-31T03:01:40.875Z,10.02
2022-08-31T03:04:26.251Z,10.01
2022-08-31T03:07:11.814Z,10.01
2022-08-31T03:09:57.560Z,9.92
2022-08-31T03:12:43.144Z,9.93
2022-08-31T03:15:28.924Z,9.96
2022-08-31T03:18:14.172Z,10.00
2022-08-31T03:20:59.560Z,9.92
2022-08-31T03:23:44.824Z,9.92
2022-08-31T03:26:30.229Z,9.82
2022-08-31T03:29:15.647Z,9.78
2022-08-31T03:32:01.307Z,9.77
2022-08-31T03:34:46.709Z,9.68
2022-08-31T03:37:32.307Z,9.57
2022-08-31T03:40:17.548Z,9.66
2022-08-31T03:43:02.897Z,9.63
2022-08-31T03:45:49.500Z,9.78
2022-08-31T03:48:34.719Z,9.62
2022-08-31T03:51:20.318Z,9.66
2022-08-31T03:54:05.974Z,9.62
2022-08-31T03:56:51.430Z,9.52
2022-08-31T03:59:38.736Z,9.45
2022-08-31T04:02:24.466Z,9.50
2022-08-31T04:05:10.081Z,9.44
2022-08-31T04:07:55.680Z,9.31
2022-08-31T04:10:41.989Z,9.31
2022-08-31T04:13:30.181Z,9.36
2022-08-31T04:16:17.640Z,9.34
2022-08-31T04:19:03.879Z,9.42
2022-08-31T04:21:53.430Z,9.31
2022-08-31T04:24:38.700Z,9.18
2022-08-31T04:27:24.116Z,9.14
2022-08-31T04:30:09.929Z,9.07
2022-08-31T04:32:56.918Z,9.19
2022-08-31T04:35:42.383Z,9.11
2022-08-31T04:38:27.585Z,9.15
2022-08-31T04:41:13.943Z,9.12
2022-08-31T04:44:00.202Z,9.15
2022-08-31T04:46:45.772Z,9.16
2022-08-31T04:49:30.862Z,9.16
2022-08-31T04:52:16.346Z,9.18
2022-08-31T04:55:02.825Z,9.23
2022-08-31T04:57:47.888Z,9.27
2022-08-31T05:00:37.104Z,9.39
2022-08-31T05:03:22.947Z,9.43
2022-08-31T05:06:12.761Z,9.49
2022-08-31T05:08:59.912Z,9.55
2022-08-31T05:11:45.801Z,9.63
2022-08-31T05:14:31.128Z,9.92
2022-08-31T05:17:16.998Z,9.88
2022-08-31T05:20:02.620Z,9.99
2022-08-31T05:22:47.488Z,10.13
2022-08-31T05:25:33.264Z,10.23
2022-08-31T05:28:23.353Z,10.32
2022-08-31T05:31:08.550Z,10.44
2022-08-31T05:33:53.772Z,10.56
2022-08-31T05:36:39.876Z,10.72
2022-08-31T05:39:26.056Z,10.83
2022-08-31T05:42:15.234Z,10.99
2022-08-31T05:45:00.940Z,11.21
2022-08-31T05:47:46.296Z,11.45
2022-08-31T05:50:31.860Z,11.58
2022-08-31T05:53:17.966Z,11.79
2022-08-31T05:56:10.047Z,11.86
2022-08-31T05:58:55.735Z,12.20
2022-08-31T06:01:41.685Z,12.55
2022-08-31T06:04:27.516Z,12.87
2022-08-31T06:07:12.989Z,13.08
2022-08-31T06:09:58.384Z,13.37
2022-08-31T06:12:44.027Z,13.52
2022-08-31T06:15:29.637Z,13.91
2022-08-31T06:18:14.776Z,14.20
2022-08-31T06:21:00.778Z,14.27
2022-08-31T06:23:47.081Z,14.65
2022-08-31T06:26:34.237Z,14.89
2022-08-31T06:29:20.646Z,15.11
2022-08-31T06:32:10.931Z,15.44
2022-08-31T06:34:56.370Z,15.83
2022-08-31T06:37:41.472Z,16.06
2022-08-31T06:40:27.065Z,16.52
2022-08-31T06:43:12.300Z,16.83
2022-08-31T06:45:58.021Z,17.15
2022-08-31T06:48:43.859Z,17.42
2022-08-31T06:51:36.224Z,17.56
2022-08-31T06:54:30.250Z,17.35
2022-08-31T06:57:16.466Z,17.78
2022-08-31T07:00:02.042Z,18.14
2022-08-31T07:02:53.172Z,17.88
2022-08-31T07:05:42.571Z,17.96
2022-08-31T07:08:28.052Z,18.52
2022-08-31T07:11:15.712Z,18.59
2022-08-31T07:14:01.537Z,19.04
2022-08-31T07:16:47.503Z,19.42
2022-08-31T07:19:32.669Z,19.55
2022-08-31T07:22:18.002Z,19.85
2022-08-31T07:25:03.560Z,19.64
2022-08-31T07:27:55.444Z,20.08
2022-08-31T07:30:42.098Z,20.22
2022-08-31T07:33:27.641Z,20.87
2022-08-31T07:36:14.712Z,21.30
2022-08-31T07:39:18.978Z,21.85
2022-08-31T07:42:11.711Z,22.16
2022-08-31T07:44:58.072Z,22.62
2022-08-31T07:47:47.880Z,22.95
2022-08-31T07:50:33.152Z,23.34
2022-08-31T07:53:21.107Z,24.07
2022-08-31T07:56:07.873Z,24.37
2022-08-31T07:58:53.390Z,24.02
2022-08-31T08:01:41.190Z,23.78
2022-08-31T08:04:26.355Z,24.41
2022-08-31T08:07:12.349Z,24.52
2022-08-31T08:09:57.793Z,24.23
2022-08-31T08:12:44.303Z,23.45
2022-08-31T08:15:29.768Z,24.07
2022-08-31T08:18:15.341Z,23.40
2022-08-31T08:21:00.884Z,23.78
2022-08-31T08:23:45.987Z,23.33
2022-08-31T08:26:31.675Z,24.85
2022-08-31T08:29:18.096Z,25.94
2022-08-31T08:32:03.472Z,27.83
2022-08-31T08:34:48.920Z,27.42
2022-08-31T08:37:56.651Z,27.29
2022-08-31T08:40:42.505Z,28.39
2022-08-31T08:43:35.536Z,28.17
2022-08-31T08:46:41.314Z,26.90
2022-08-31T08:49:35.238Z,27.86
2022-08-31T08:52:20.387Z,26.75
2022-08-31T08:55:08.797Z,27.23
2022-08-31T08:57:55.952Z,29.28
2022-08-31T09:00:46.365Z,30.05
2022-08-31T09:03:44.293Z,30.71
2022-08-31T09:06:45.421Z,32.18
2022-08-31T09:09:47.041Z,30.53
2022-08-31T09:12:43.169Z,30.34
2022-08-31T09:15:37.311Z,31.40
2022-08-31T09:18:28.004Z,31.68
2022-08-31T09:21:25.231Z,31.74
2022-08-31T09:24:12.944Z,31.59
2022-08-31T09:27:11.281Z,29.68
2022-08-31T09:29:58.112Z,30.99
2022-08-31T09:32:53.693Z,28.71
2022-08-31T09:35:42.074Z,26.64
2022-08-31T09:38:31.497Z,27.05
2022-08-31T09:41:29.417Z,26.56
2022-08-31T09:44:23.981Z,28.10
2022-08-31T09:47:40.349Z,29.67
2022-08-31T09:50:27.322Z,28.76
2022-08-31T09:53:31.548Z,32.01
2022-08-31T09:56:21.832Z,31.98
2022-08-31T09:59:07.111Z,32.91
2022-08-31T10:01:54.048Z,33.30
2022-08-31T10:04:47.760Z,33.14
2022-08-31T10:07:33.202Z,32.12
2022-08-31T10:10:30.974Z,30.75
2022-08-31T10:13:21.930Z,30.48
2022-08-31T10:16:14.624Z,30.49
2022-08-31T10:19:07.488Z,32.59
2022-08-31T10:21:59.896Z,33.85
2022-08-31T10:24:47.933Z,34.56
2022-08-31T10:27:38.606Z,34.13
2022-08-31T10:30:24.052Z,35.24
2022-08-31T10:33:48.443Z,34.68
2022-08-31T10:36:37.707Z,35.56
2022-08-31T10:39:23.129Z,32.66
2022-08-31T10:42:11.827Z,33.66
2022-08-31T10:45:01.172Z,34.09
2022-08-31T10:47:49.023Z,33.02
2022-08-31T10:50:40.169Z,32.67
2022-08-31T10:53:35.935Z,34.90
2022-08-31T10:56:35.460Z,34.45
2022-08-31T10:59:33.495Z,37.59
2022-08-31T11:02:27.926Z,38.69
2022-08-31T11:05:22.853Z,41.97
2022-08-31T11:08:13.817Z,39.84
2022-08-31T11:10:59.555Z,40.34
2022-08-31T11:13:49.552Z,40.82
2022-08-31T11:16:46.754Z,38.50
2022-08-31T11:19:41.428Z,39.09
2022-08-31T11:22:37.441Z,36.46
2022-08-31T11:25:35.298Z,36.75
2022-08-31T11:28:32.031Z,37.55
2022-08-31T11:31:25.600Z,38.43
2022-08-31T11:34:16.301Z,38.24
2022-08-31T11:37:09.138Z,36.26
2022-08-31T11:39:54.385Z,31.94
2022-08-31T11:42:39.559Z,31.35
2022-08-31T11:45:31.123Z,33.36
2022-08-31T11:48:37.660Z,35.68
2022-08-31T11:51:45.345Z,38.76
2022-08-31T11:54:38.084Z,39.10
2022-08-31T11:57:25.321Z,38.39
2022-08-31T12:00:19.847Z,37.71
2022-08-31T12:03:09.420Z,38.78
2022-08-31T12:05:57.901Z,39.25
2022-08-31T12:08:52.628Z,39.62
2022-08-31T12:11:47.643Z,40.28
2022-08-31T12:14:39.249Z,40.59
2022-08-31T12:17:35.104Z,39.88
2022-08-31T12:20:23.179Z,39.64
2022-08-31T12:23:40.629Z,39.58
2022-08-31T12:26:50.582Z,39.24
2022-08-31T12:29:37.031Z,38.90
2022-08-31T12:32:27.305Z,36.48
2022-08-31T12:35:12.268Z,39.06
2022-08-31T12:38:03.157Z,39.73
2022-08-31T12:40:51.003Z,39.22
2022-08-31T12:43:38.716Z,36.52
2022-08-31T12:46:31.829Z,31.59
2022-08-31T12:49:35.320Z,29.78
2022-08-31T12:52:29.288Z,30.07
2022-08-31T12:55:28.138Z,34.59
2022-08-31T12:58:19.487Z,37.47
2022-08-31T13:01:10.435Z,37.56
2022-08-31T13:04:00.436Z,37.66
2022-08-31T13:06:48.187Z,40.07
2022-08-31T13:09:35.548Z,40.41
2022-08-31T13:12:23.051Z,40.25
2022-08-31T13:15:21.102Z,39.86
2022-08-31T13:18:26.379Z,39.36
2022-08-31T13:21:12.525Z,38.29
2022-08-31T13:24:10.502Z,39.57
2022-08-31T13:27:05.805Z,39.17
2022-08-31T13:29:53.505Z,38.39
2022-08-31T13:32:40.805Z,39.61
2022-08-31T13:35:33.592Z,37.59
2022-08-31T13:38:29.048Z,40.24
2022-08-31T13:41:17.700Z,40.30
2022-08-31T13:44:05.355Z,40.75
2022-08-31T13:47:00.085Z,40.80
2022-08-31T13:49:45.980Z,41.03
2022-08-31T13:52:31.368Z,40.57
2022-08-31T13:55:37.090Z,41.59
2022-08-31T13:58:26.102Z,39.22
2022-08-31T14:01:23.710Z,38.44
2022-08-31T14:04:34.326Z,35.03
2022-08-31T14:07:24.477Z,31.02
2022-08-31T14:10:14.914Z,28.15
2022-08-31T14:13:06.921Z,27.74
2022-08-31T14:15:54.845Z,27.88
2022-08-31T14:18:42.866Z,32.47
2022-08-31T14:21:29.920Z,35.80
2022-08-31T14:24:16.490Z,37.36
2022-08-31T14:27:02.237Z,37.53
2022-08-31T14:29:47.681Z,37.67
2022-08-31T14:32:33.241Z,39.93
2022-08-31T14:35:18.682Z,36.05
2022-08-31T14:38:04.335Z,33.06
2022-08-31T14:40:49.885Z,32.01
2022-08-31T14:43:35.535Z,29.68
2022-08-31T14:46:27.800Z,28.84
2022-08-31T14:49:12.886Z,27.42
2022-08-31T14:52:03.065Z,26.96
2022-08-31T14:54:48.500Z,26.50
2022-08-31T14:57:33.953Z,25.69
2022-08-31T15:00:23.121Z,25.91
2022-08-31T15:03:09.415Z,25.88
2022-08-31T15:05:54.963Z,25.62
2022-08-31T15:08:41.332Z,25.75
2022-08-31T15:11:26.827Z,26.82
2022-08-31T15:14:12.402Z,28.96
2022-08-31T15:17:03.230Z,32.25
2022-08-31T15:19:51.423Z,35.20
2022-08-31T15:22:40.371Z,36.81
2022-08-31T15:25:26.201Z,37.04
2022-08-31T15:28:11.454Z,36.71
2022-08-31T15:30:57.808Z,34.80
2022-08-31T15:33:49.203Z,30.73
2022-08-31T15:36:36.020Z,28.00
2022-08-31T15:39:22.596Z,26.92
2022-08-31T15:42:11.244Z,26.81
2022-08-31T15:44:57.192Z,25.52
2022-08-31T15:48:01.212Z,25.67
2022-08-31T15:50:52.589Z,25.58
2022-08-31T15:53:42.654Z,25.40
2022-08-31T15:56:29.364Z,25.13
2022-08-31T15:59:14.779Z,24.95
2022-08-31T16:02:01.279Z,24.84
2022-08-31T16:04:48.250Z,24.63
2022-08-31T16:07:34.852Z,24.87
2022-08-31T16:10:20.551Z,25.08
2022-08-31T16:13:07.182Z,24.87
2022-08-31T16:15:53.147Z,24.52
2022-08-31T16:18:38.348Z,24.95
2022-08-31T16:21:25.453Z,25.12
2022-08-31T16:24:14.100Z,24.74
2022-08-31T16:27:00.534Z,24.56
2022-08-31T16:29:46.404Z,24.55
2022-08-31T16:32:31.766Z,24.33
2022-08-31T16:35:17.311Z,24.33
2022-08-31T16:38:03.043Z,24.44
2022-08-31T16:40:48.881Z,24.22
2022-08-31T16:43:34.195Z,24.07
2022-08-31T16:46:40.100Z,23.76
2022-08-31T16:49:33.712Z,23.88
2022-08-31T16:52:21.455Z,23.86
2022-08-31T16:55:07.106Z,23.76
2022-08-31T16:57:52.328Z,23.59
2022-08-31T17:00:38.077Z,23.66
2022-08-31T17:03:23.689Z,23.10
2022-08-31T17:06:09.192Z,23.06
2022-08-31T17:08:59.146Z,23.27
2022-08-31T17:11:49.184Z,23.25
2022-08-31T17:14:36.138Z,23.06
2022-08-31T17:17:22.947Z,23.13
2022-08-31T17:20:08.804Z,23.15
2022-08-31T17:22:54.459Z,22.90
2022-08-31T17:25:39.999Z,23.04
2022-08-31T17:28:26.094Z,22.69
2022-08-31T17:31:11.718Z,22.57
2022-08-31T17:33:58.258Z,22.29
2022-08-31T17:36:45.893Z,22.36
2022-08-31T17:39:31.049Z,22.30
2022-08-31T17:42:19.823Z,22.18
2022-08-31T17:45:06.358Z,21.97
2022-08-31T17:47:54.856Z,21.85
2022-08-31T17:50:43.542Z,21.67
2022-08-31T17:53:29.179Z,21.60
2022-08-31T17:56:15.663Z,21.48
2022-08-31T17:59:01.291Z,21.42
2022-08-31T18:01:47.724Z,21.23
2022-08-31T18:04:34.845Z,20.98
2022-08-31T18:07:20.274Z,20.93
2022-08-31T18:10:05.522Z,20.73
2022-08-31T18:12:51.045Z,20.59
2022-08-31T18:15:36.239Z,20.49
2022-08-31T18:18:21.913Z,20.25
2022-08-31T18:21:07.731Z,20.17
2022-08-31T18:23:53.202Z,20.21
2022-08-31T18:26:40.166Z,20.09
2022-08-31T18:29:26.725Z,19.98
2022-08-31T18:32:12.612Z,19.98
2022-08-31T18:34:58.129Z,19.89
2022-08-31T18:37:44.740Z,19.76
2022-08-31T18:40:49.019Z,19.62
2022-08-31T18:43:53.291Z,19.56
2022-08-31T18:46:45.061Z,19.35
2022-08-31T18:49:34.837Z,19.26
2022-08-31T18:52:22.917Z,19.13
2022-08-31T18:55:08.455Z,19.09
2022-08-31T18:57:54.163Z,19.04
2022-08-31T19:00:40.374Z,18.97
2022-08-31T19:03:27.780Z,18.94
2022-08-31T19:06:23.536Z,18.92
2022-08-31T19:09:09.977Z,18.84
2022-08-31T19:12:02.353Z,18.76
2022-08-31T19:14:50.419Z,18.69
2022-08-31T19:17:36.261Z,18.51
2022-08-31T19:20:21.986Z,18.50
2022-08-31T19:23:08.286Z,18.31
2022-08-31T19:25:54.842Z,18.26
2022-08-31T19:28:41.327Z,18.13
2022-08-31T19:31:27.978Z,18.11
2022-08-31T19:34:15.980Z,18.07
2022-08-31T19:37:02.017Z,17.99
2022-08-31T19:39:47.850Z,18.01
2022-08-31T19:42:59.477Z,17.92
2022-08-31T19:45:43.289Z,17.92
2022-08-31T19:48:33.101Z,17.89
2022-08-31T19:51:29.808Z,17.86
2022-08-31T19:54:16.436Z,17.81
2022-08-31T19:57:03.705Z,17.87
2022-08-31T19:59:49.990Z,17.76
2022-08-31T20:02:36.360Z,17.64
2022-08-31T20:05:22.283Z,17.59
2022-08-31T20:08:08.598Z,17.49
2022-08-31T20:10:53.868Z,17.45
2022-08-31T20:13:40.523Z,17.41
2022-08-31T20:16:33.240Z,17.39
2022-08-31T20:19:24.828Z,17.30
2022-08-31T20:22:10.777Z,17.28
2022-08-31T20:24:58.298Z,17.21
2022-08-31T20:27:44.783Z,17.08
2022-08-31T20:30:38.945Z,17.10
2022-08-31T20:33:26.018Z,17.03
2022-08-31T20:36:18.856Z,16.95
2022-08-31T20:39:07.797Z,16.95
2022-08-31T20:41:54.510Z,17.00
2022-08-31T20:44:39.881Z,16.98
2022-08-31T20:47:43.882Z,16.87
2022-08-31T20:50:29.650Z,16.73
2022-08-31T20:53:15.322Z,16.45
2022-08-31T20:56:05.961Z,16.39
2022-08-31T20:58:51.516Z,16.51
2022-08-31T21:01:37.588Z,16.47
2022-08-31T21:04:23.136Z,16.43
2022-08-31T21:07:11.821Z,16.30
2022-08-31T21:09:58.604Z,15.99
2022-08-31T21:12:43.975Z,15.63
2022-08-31T21:15:29.572Z,15.54
2022-08-31T21:18:17.269Z,15.26
2022-08-31T21:21:05.472Z,15.06
2022-08-31T21:23:50.943Z,15.03
2022-08-31T21:26:39.565Z,14.95
2022-08-31T21:29:25.283Z,14.77
2022-08-31T21:32:10.509Z,14.71
2022-08-31T21:34:56.645Z,14.58
2022-08-31T21:37:42.202Z,14.57
2022-08-31T21:40:29.393Z,14.49
2022-08-31T21:43:14.906Z,14.42
2022-08-31T21:46:01.694Z,14.50
2022-08-31T21:48:47.235Z,14.31
2022-08-31T21:51:34.461Z,14.21
2022-08-31T21:54:21.337Z,14.14
2022-08-31T21:57:06.604Z,14.07
2022-08-31T21:59:52.220Z,13.99
2022-08-31T22:02:37.653Z,13.95
2022-08-31T22:05:22.852Z,14.01
2022-08-31T22:08:08.272Z,13.97
2022-08-31T22:10:54.861Z,13.91
2022-08-31T22:13:41.041Z,13.87
2022-08-31T22:16:26.986Z,13.89
2022-08-31T22:19:13.822Z,13.86
2022-08-31T22:21:59.496Z,13.83
2022-08-31T22:24:45.283Z,13.72
2022-08-31T22:27:30.607Z,13.69
2022-08-31T22:30:16.302Z,13.64
2022-08-31T22:33:02.259Z,13.62
2022-08-31T22:35:47.721Z,13.57
2022-08-31T22:38:34.694Z,13.59
2022-08-31T22:41:20.032Z,13.68
2022-08-31T22:44:06.373Z,13.72
2022-08-31T22:46:52.075Z,13.60
2022-08-31T22:49:37.512Z,13.59
2022-08-31T22:52:22.631Z,13.55
2022-08-31T22:55:08.988Z,13.40
2022-08-31T22:57:54.508Z,13.27
2022-08-31T23:00:39.932Z,13.24
2022-08-31T23:03:27.081Z,13.10
2022-08-31T23:06:12.535Z,12.98
2022-08-31T23:08:58.265Z,12.94
2022-08-31T23:11:43.386Z,12.96
2022-08-31T23:14:29.328Z,13.01
2022-08-31T23:17:16.686Z,12.95
2022-08-31T23:20:05.080Z,12.93
2022-08-31T23:22:51.705Z,12.88
2022-08-31T23:25:38.638Z,12.77
2022-08-31T23:28:23.813Z,12.74
2022-08-31T23:31:09.451Z,12.76
2022-08-31T23:33:54.833Z,12.73
2022-08-31T23:36:41.566Z,12.67
2022-08-31T23:39:27.162Z,12.76
2022-08-31T23:42:13.778Z,12.72
2022-08-31T23:44:59.649Z,12.71
2022-08-31T23:47:44.824Z,12.69
2022-08-31T23:50:30.467Z,12.65
2022-08-31T23:53:17.265Z,12.70
2022-08-31T23:56:08.920Z,12.66
2022-08-31T23:58:54.151Z,12.73
